createdAt,value
2023-10-16T00:00:02.050Z,28.50
2023-10-16T00:02:29.530Z,27.00
2023-10-16T00:04:58.087Z,30.75
2023-10-16T00:07:25.385Z,36.00
2023-10-16T00:09:52.752Z,34.50
2023-10-16T00:12:19.988Z,21.00
2023-10-16T00:14:47.502Z,24.25
2023-10-16T00:17:18.445Z,21.00
2023-10-16T00:19:45.626Z,19.00
2023-10-16T00:22:14.285Z,22.25
2023-10-16T00:24:42.020Z,17.00
2023-10-16T00:27:09.295Z,15.75
2023-10-16T00:29:41.721Z,18.00
2023-10-16T00:32:09.859Z,17.50
2023-10-16T00:34:40.276Z,14.25
2023-10-16T00:37:07.525Z,17.25
2023-10-16T00:39:36.952Z,16.25
2023-10-16T00:42:04.504Z,14.50
2023-10-16T00:44:31.770Z,12.50
2023-10-16T00:46:59.106Z,18.25
2023-10-16T00:49:26.461Z,12.00
2023-10-16T00:51:54.797Z,15.75
2023-10-16T00:54:25.042Z,12.00
2023-10-16T00:56:57.354Z,17.00
2023-10-16T00:59:31.532Z,11.75
2023-10-16T01:01:58.916Z,17.00
2023-10-16T01:04:25.766Z,18.00
2023-10-16T01:06:53.720Z,16.00
2023-10-16T01:09:21.008Z,17.00
2023-10-16T01:11:48.315Z,15.25
2023-10-16T01:14:17.196Z,17.75
2023-10-16T01:16:46.618Z,15.75
2023-10-16T01:19:14.577Z,16.00
2023-10-16T01:21:42.167Z,10.00
2023-10-16T01:24:10.988Z,15.50
2023-10-16T01:26:38.360Z,19.00
2023-10-16T01:29:05.969Z,11.50
2023-10-16T01:31:33.318Z,15.50
2023-10-16T01:34:03.849Z,19.50
2023-10-16T01:36:31.929Z,12.00
2023-10-16T01:39:06.010Z,13.25
2023-10-16T01:41:35.415Z,14.50
2023-10-16T01:44:02.667Z,10.00
2023-10-16T01:46:29.942Z,15.00
2023-10-16T01:48:58.466Z,8.75
2023-10-16T01:51:25.753Z,14.00
2023-10-16T01:53:52.876Z,16.50
2023-10-16T01:56:22.928Z,11.75
2023-10-16T01:58:51.565Z,16.25
2023-10-16T02:01:20.586Z,13.50
2023-10-16T02:03:49.303Z,14.00
2023-10-16T02:06:17.703Z,16.75
2023-10-16T02:08:46.456Z,11.25
2023-10-16T02:11:19.859Z,11.00
2023-10-16T02:13:47.227Z,14.00
2023-10-16T02:16:23.949Z,14.75
2023-10-16T02:18:51.542Z,6.25
2023-10-16T02:21:19.197Z,10.50
2023-10-16T02:23:46.600Z,11.75
2023-10-16T02:26:15.543Z,11.25
2023-10-16T02:28:42.816Z,7.00
2023-10-16T02:31:10.125Z,13.50
2023-10-16T02:33:39.560Z,10.50
2023-10-16T02:36:06.788Z,12.25
2023-10-16T02:38:34.020Z,9.00
2023-10-16T02:41:01.768Z,10.00
2023-10-16T02:43:29.392Z,10.75
2023-10-16T02:45:57.140Z,11.25
2023-10-16T02:48:25.628Z,10.25
2023-10-16T02:50:54.495Z,6.50
2023-10-16T02:53:22.336Z,14.25
2023-10-16T02:55:51.142Z,9.00
2023-10-16T02:58:18.967Z,10.00
2023-10-16T03:00:46.354Z,10.00
2023-10-16T03:03:14.154Z,9.00
2023-10-16T03:05:41.439Z,7.75
2023-10-16T03:08:10.136Z,8.50
2023-10-16T03:10:38.452Z,6.00
2023-10-16T03:13:05.847Z,3.75
2023-10-16T03:15:34.744Z,4.25
2023-10-16T03:18:06.509Z,8.25
2023-10-16T03:20:33.669Z,6.75
2023-10-16T03:23:00.816Z,9.50
2023-10-16T03:25:30.621Z,10.00
2023-10-16T03:27:58.061Z,10.50
2023-10-16T03:30:27.347Z,6.25
2023-10-16T03:32:54.885Z,7.75
2023-10-16T03:35:22.063Z,8.50
2023-10-16T03:37:49.369Z,8.25
2023-10-16T03:40:20.591Z,9.25
2023-10-16T03:42:51.989Z,11.00
2023-10-16T03:45:19.354Z,8.00
2023-10-16T03:53:32.440Z,8.50
2023-10-16T03:55:59.934Z,5.50
2023-10-16T03:58:28.588Z,7.25
2023-10-16T04:00:56.118Z,6.00
2023-10-16T04:03:24.174Z,6.50
2023-10-16T04:05:59.752Z,8.00
2023-10-16T04:08:27.114Z,7.75
2023-10-16T04:10:55.073Z,5.50
2023-10-16T04:13:22.476Z,6.00
2023-10-16T04:15:51.189Z,5.75
2023-10-16T04:18:18.748Z,5.00
2023-10-16T04:20:46.232Z,5.00
2023-10-16T04:23:13.591Z,7.00
2023-10-16T04:25:41.527Z,2.75
2023-10-16T04:28:10.524Z,5.75
2023-10-16T04:30:41.493Z,7.75
2023-10-16T04:36:04.516Z,8.25
2023-10-16T04:38:31.719Z,4.50
2023-10-16T04:40:59.116Z,4.50
2023-10-16T04:43:29.774Z,7.00
2023-10-16T04:45:57.054Z,4.75
2023-10-16T04:48:27.943Z,4.50
2023-10-16T04:51:26.600Z,1.00
2023-10-16T04:53:42.659Z,3.50
2023-10-16T04:56:13.574Z,10.00
2023-10-16T04:58:43.177Z,4.00
2023-10-16T05:01:10.644Z,8.25
2023-10-16T05:03:39.833Z,3.75
2023-10-16T05:06:09.257Z,5.00
2023-10-16T05:08:36.681Z,8.50
2023-10-16T05:11:04.042Z,3.50
2023-10-16T05:13:31.418Z,5.00
2023-10-16T05:15:59.025Z,4.50
2023-10-16T05:18:26.043Z,3.00
2023-10-16T05:20:57.961Z,2.00
2023-10-16T05:23:28.111Z,2.25
2023-10-16T05:25:55.436Z,6.00
2023-10-16T05:28:22.853Z,5.75
2023-10-16T05:30:50.658Z,4.00
2023-10-16T05:33:18.044Z,4.25
2023-10-16T05:35:45.379Z,8.00
2023-10-16T05:38:14.629Z,10.50
2023-10-16T05:40:41.925Z,8.50
2023-10-16T05:43:09.474Z,9.50
2023-10-16T05:45:37.851Z,9.25
2023-10-16T05:48:05.178Z,8.75
2023-10-16T05:50:37.828Z,7.50
2023-10-16T05:53:05.210Z,8.00
2023-10-16T05:55:35.876Z,8.25
2023-10-16T05:58:12.262Z,8.50
2023-10-16T06:00:41.630Z,7.50
2023-10-16T06:05:59.437Z,8.50
2023-10-16T06:08:26.910Z,8.75
2023-10-16T06:10:55.624Z,7.50
2023-10-16T06:13:22.932Z,10.25
2023-10-16T06:15:50.306Z,9.00
2023-10-16T06:18:20.594Z,10.50
2023-10-16T06:20:47.762Z,7.25
2023-10-16T06:23:15.059Z,12.75
2023-10-16T06:25:42.485Z,13.50
2023-10-16T06:28:14.204Z,13.75
2023-10-16T06:33:36.688Z,19.00
2023-10-16T06:36:04.303Z,13.25
2023-10-16T06:38:31.623Z,11.75
2023-10-16T06:40:59.550Z,11.75
2023-10-16T06:43:28.559Z,9.25
2023-10-16T06:45:55.929Z,8.50
2023-10-16T06:48:23.806Z,10.25
2023-10-16T06:50:51.053Z,9.75
2023-10-16T06:53:20.519Z,11.25
2023-10-16T06:55:51.555Z,10.50
2023-10-16T06:58:19.131Z,15.25
2023-10-16T07:00:48.102Z,12.00
2023-10-16T07:03:15.658Z,16.25
2023-10-16T07:05:42.935Z,15.00
2023-10-16T07:08:10.557Z,16.00
2023-10-16T07:10:41.537Z,15.25
2023-10-16T07:13:09.168Z,8.00
2023-10-16T07:15:36.637Z,12.75
2023-10-16T07:18:07.585Z,13.50
2023-10-16T07:20:36.702Z,8.50
2023-10-16T07:23:04.210Z,11.50
2023-10-16T07:25:31.633Z,15.25
2023-10-16T07:27:58.815Z,14.25
2023-10-16T07:30:27.531Z,16.25
2023-10-16T07:32:55.591Z,24.00
2023-10-16T07:35:27.343Z,15.75
2023-10-16T07:37:55.037Z,17.75
2023-10-16T07:40:25.381Z,17.50
2023-10-16T07:42:53.610Z,15.25
2023-10-16T07:45:21.107Z,14.00
2023-10-16T07:47:49.849Z,16.25
2023-10-16T07:50:20.036Z,8.00
2023-10-16T07:52:49.082Z,7.75
2023-10-16T07:55:15.937Z,8.50
2023-10-16T07:57:43.161Z,10.50
2023-10-16T08:00:11.464Z,21.00
2023-10-16T08:02:42.446Z,13.00
2023-10-16T08:05:16.542Z,8.50
2023-10-16T08:07:44.711Z,4.00
2023-10-16T08:10:13.729Z,6.50
2023-10-16T08:12:40.911Z,6.75
2023-10-16T08:15:09.029Z,6.50
2023-10-16T08:17:37.648Z,6.50
2023-10-16T08:20:05.672Z,5.75
2023-10-16T08:25:27.842Z,5.00
2023-10-16T08:27:58.977Z,5.00
2023-10-16T08:30:26.436Z,5.75
2023-10-16T08:32:53.849Z,5.00
2023-10-16T08:35:21.243Z,6.25
2023-10-16T08:37:51.506Z,6.50
2023-10-16T08:40:19.144Z,6.50
2023-10-16T08:42:53.377Z,9.00
2023-10-16T08:45:22.977Z,19.75
2023-10-16T08:47:50.733Z,35.75
2023-10-16T08:50:19.734Z,21.25
2023-10-16T08:52:47.060Z,15.75
2023-10-16T08:55:14.348Z,8.25
2023-10-16T08:57:42.728Z,3.67
2023-10-16T09:00:13.559Z,4.00
2023-10-16T09:02:41.076Z,5.00
2023-10-16T09:05:08.633Z,5.67
2023-10-16T09:07:38.070Z,4.25
2023-10-16T09:10:06.150Z,7.00
2023-10-16T09:12:33.537Z,5.67
2023-10-16T09:15:07.044Z,5.25
2023-10-16T09:17:36.603Z,3.75
2023-10-16T09:20:06.208Z,4.50
2023-10-16T09:22:38.204Z,2.00
2023-10-16T09:25:06.550Z,3.00
2023-10-16T09:27:36.263Z,3.50
2023-10-16T09:30:04.122Z,4.00
2023-10-16T09:32:33.355Z,4.00
2023-10-16T09:35:01.987Z,4.50
2023-10-16T09:37:29.381Z,5.00
2023-10-16T09:39:56.818Z,4.25
2023-10-16T09:42:24.183Z,4.00
2023-10-16T09:44:53.708Z,4.50
2023-10-16T09:47:21.427Z,3.00
2023-10-16T09:49:50.583Z,4.50
2023-10-16T09:52:25.002Z,3.75
2023-10-16T09:54:53.274Z,13.67
2023-10-16T09:57:22.325Z,6.50
2023-10-16T09:59:54.812Z,6.25
2023-10-16T10:02:23.284Z,6.25
2023-10-16T10:04:53.699Z,3.50
2023-10-16T10:07:23.310Z,2.00
2023-10-16T10:09:54.145Z,3.00
2023-10-16T10:15:33.783Z,3.00
2023-10-16T10:18:03.506Z,2.50
2023-10-16T10:20:30.849Z,4.25
2023-10-16T10:23:03.577Z,6.50
2023-10-16T10:25:31.587Z,4.75
2023-10-16T10:31:00.080Z,2.50
2023-10-16T10:33:41.935Z,6.50
2023-10-16T10:36:34.933Z,3.25
2023-10-16T10:39:37.740Z,4.25
2023-10-16T10:42:06.016Z,4.00
2023-10-16T10:44:34.519Z,3.75
2023-10-16T10:47:01.777Z,3.00
2023-10-16T10:49:29.835Z,6.50
2023-10-16T10:54:57.343Z,3.00
2023-10-16T10:57:25.522Z,5.75
2023-10-16T10:59:53.236Z,5.50
2023-10-16T11:02:20.790Z,7.00
2023-10-16T11:04:49.339Z,4.25
2023-10-16T11:07:16.741Z,10.25
2023-10-16T11:09:44.216Z,7.75
2023-10-16T11:12:15.372Z,6.50
2023-10-16T11:14:42.735Z,7.00
2023-10-16T11:17:10.073Z,5.25
2023-10-16T11:19:49.324Z,6.25
2023-10-16T11:22:20.427Z,5.00
2023-10-16T11:24:49.397Z,7.50
2023-10-16T11:27:18.597Z,5.00
2023-10-16T11:29:46.873Z,6.75
2023-10-16T11:32:14.582Z,2.00
2023-10-16T11:34:45.144Z,1.25
2023-10-16T11:37:15.974Z,6.00
2023-10-16T11:39:43.966Z,9.00
2023-10-16T11:42:11.039Z,7.25
2023-10-16T11:44:39.809Z,6.75
2023-10-16T11:47:08.545Z,9.25
2023-10-16T11:49:36.535Z,7.25
2023-10-16T11:52:07.734Z,8.00
2023-10-16T11:54:43.314Z,6.50
2023-10-16T11:57:11.750Z,8.25
2023-10-16T11:59:40.721Z,5.00
2023-10-16T12:02:08.099Z,6.25
2023-10-16T12:04:35.843Z,7.00
2023-10-16T12:07:03.245Z,3.75
2023-10-16T12:09:30.864Z,5.50
2023-10-16T12:14:51.715Z,8.00
2023-10-16T12:17:19.729Z,6.00
2023-10-16T12:19:47.412Z,8.00
2023-10-16T12:22:15.828Z,7.75
2023-10-16T12:24:43.113Z,5.50
2023-10-16T12:27:12.751Z,4.50
2023-10-16T12:29:40.650Z,6.25
2023-10-16T12:32:09.517Z,4.75
2023-10-16T12:34:36.711Z,7.75
2023-10-16T12:37:05.047Z,4.00
2023-10-16T12:39:32.261Z,6.75
2023-10-16T12:42:00.748Z,7.50
2023-10-16T12:44:28.245Z,7.50
2023-10-16T12:46:55.713Z,8.25
2023-10-16T12:49:24.883Z,6.50
2023-10-16T12:51:52.110Z,7.25
2023-10-16T12:54:19.292Z,5.25
2023-10-16T12:56:46.866Z,4.75
2023-10-16T12:59:14.053Z,7.25
2023-10-16T13:01:41.603Z,7.50
2023-10-16T13:04:08.812Z,5.75
2023-10-16T13:06:37.520Z,6.75
2023-10-16T13:09:05.014Z,6.00
2023-10-16T13:11:32.260Z,6.25
2023-10-16T13:13:59.545Z,7.75
2023-10-16T13:19:21.655Z,8.00
2023-10-16T13:21:49.774Z,7.75
2023-10-16T13:24:17.067Z,5.00
2023-10-16T13:26:44.606Z,6.25
2023-10-16T13:29:12.061Z,5.50
2023-10-16T13:31:40.885Z,7.75
2023-10-16T13:34:08.671Z,6.50
2023-10-16T13:36:35.900Z,7.50
2023-10-16T13:39:05.399Z,8.25
2023-10-16T13:41:36.896Z,7.75
2023-10-16T13:44:04.194Z,5.75
2023-10-16T13:46:31.424Z,5.00
2023-10-16T13:48:59.031Z,5.25
2023-10-16T13:51:26.397Z,8.50
2023-10-16T13:53:53.771Z,17.50
2023-10-16T13:56:22.825Z,25.75
2023-10-16T13:58:50.130Z,21.75
2023-10-16T14:01:17.377Z,21.00
2023-10-16T14:03:44.857Z,19.25
2023-10-16T14:06:12.261Z,17.75
2023-10-16T14:08:39.936Z,16.50
2023-10-16T14:11:06.627Z,9.25
2023-10-16T14:13:35.457Z,4.25
2023-10-16T14:16:09.131Z,5.00
2023-10-16T14:18:36.952Z,8.25
2023-10-16T14:21:04.480Z,4.50
2023-10-16T14:23:31.786Z,5.25
2023-10-16T14:25:59.394Z,8.50
2023-10-16T14:28:27.159Z,7.00
2023-10-16T14:30:57.302Z,10.00
2023-10-16T14:33:26.659Z,7.75
2023-10-16T14:35:53.956Z,6.25
2023-10-16T14:38:21.298Z,6.50
2023-10-16T14:40:48.979Z,5.50
2023-10-16T14:43:19.364Z,6.00
2023-10-16T14:45:46.742Z,8.00
2023-10-16T14:48:16.270Z,8.00
2023-10-16T14:50:44.003Z,8.75
2023-10-16T14:53:11.356Z,6.25
2023-10-16T14:55:38.818Z,5.50
2023-10-16T14:58:13.596Z,8.00
2023-10-16T15:00:51.680Z,7.50
2023-10-16T15:03:21.311Z,8.75
2023-10-16T15:05:49.324Z,10.25
2023-10-16T15:08:18.009Z,7.25
2023-10-16T15:10:49.912Z,10.75
2023-10-16T15:13:27.036Z,11.00
2023-10-16T15:15:54.788Z,12.33
2023-10-16T15:18:24.622Z,11.67
2023-10-16T15:20:51.986Z,18.25
2023-10-16T15:23:19.367Z,17.75
2023-10-16T15:25:46.769Z,10.67
2023-10-16T15:28:24.295Z,16.00
2023-10-16T15:31:00.274Z,14.75
2023-10-16T15:33:29.068Z,18.00
2023-10-16T15:35:56.687Z,9.75
2023-10-16T15:38:25.777Z,16.67
2023-10-16T15:40:55.829Z,10.50
2023-10-16T15:43:24.697Z,10.50
2023-10-16T15:45:55.008Z,12.50
2023-10-16T15:48:22.313Z,9.25
2023-10-16T15:50:51.159Z,9.00
2023-10-16T15:53:18.542Z,14.50
2023-10-16T15:55:48.794Z,12.25
2023-10-16T15:58:16.428Z,11.00
2023-10-16T16:00:43.879Z,7.75
2023-10-16T16:03:14.226Z,11.33
2023-10-16T16:05:41.560Z,10.67
2023-10-16T16:08:10.553Z,11.00
2023-10-16T16:10:40.196Z,9.67
2023-10-16T16:13:07.801Z,12.00
2023-10-16T16:15:35.686Z,10.67
2023-10-16T16:18:06.477Z,10.67
2023-10-16T16:20:33.926Z,11.67
2023-10-16T16:23:01.790Z,6.67
2023-10-16T16:25:30.955Z,9.67
2023-10-16T16:27:58.668Z,9.00
2023-10-16T16:30:25.965Z,7.33
2023-10-16T16:32:53.294Z,10.33
2023-10-16T16:35:21.792Z,11.67
2023-10-16T16:37:53.781Z,9.67
2023-10-16T16:40:21.540Z,10.33
2023-10-16T16:42:52.036Z,8.00
2023-10-16T16:45:20.813Z,8.33
2023-10-16T16:47:48.079Z,11.00
2023-10-16T16:50:15.858Z,13.33
2023-10-16T16:52:44.140Z,11.67
2023-10-16T16:55:11.693Z,9.67
2023-10-16T16:57:39.667Z,11.00
2023-10-16T17:00:11.174Z,12.33
2023-10-16T17:02:38.683Z,14.25
2023-10-16T17:10:55.804Z,12.00
2023-10-16T17:13:26.565Z,14.25
2023-10-16T17:15:55.301Z,12.75
2023-10-16T17:18:22.868Z,13.50
2023-10-16T17:21:00.258Z,17.75
2023-10-16T17:23:27.743Z,16.50
2023-10-16T17:25:55.112Z,7.50
2023-10-16T17:28:22.388Z,20.50
2023-10-16T17:33:41.754Z,30.75
2023-10-16T17:36:09.041Z,30.50
2023-10-16T17:38:36.368Z,19.25
2023-10-16T17:41:04.100Z,17.50
2023-10-16T17:43:31.261Z,16.50
2023-10-16T17:45:58.546Z,16.75
2023-10-16T17:48:26.045Z,18.25
2023-10-16T17:50:54.858Z,20.75
2023-10-16T17:53:22.357Z,15.50
2023-10-16T17:55:50.331Z,19.00
2023-10-16T17:58:17.579Z,16.75
2023-10-16T18:00:44.804Z,19.00
2023-10-16T18:03:12.573Z,23.50
2023-10-16T18:05:40.317Z,25.00
2023-10-16T18:08:12.806Z,23.00
2023-10-16T18:10:43.564Z,9.00
2023-10-16T18:13:10.785Z,17.75
2023-10-16T18:15:52.045Z,18.00
2023-10-16T18:18:19.985Z,20.75
2023-10-16T18:20:50.665Z,16.25
2023-10-16T18:23:19.803Z,17.75
2023-10-16T18:25:47.144Z,13.00
2023-10-16T18:28:15.134Z,14.00
2023-10-16T18:30:43.319Z,10.75
2023-10-16T18:33:10.649Z,11.00
2023-10-16T18:35:38.912Z,11.00
2023-10-16T18:38:06.920Z,7.00
2023-10-16T18:40:39.687Z,10.75
2023-10-16T18:43:07.562Z,16.75
2023-10-16T18:45:35.625Z,20.00
2023-10-16T18:50:54.646Z,11.50
2023-10-16T18:59:08.740Z,13.50
2023-10-16T19:01:36.121Z,10.00
2023-10-16T19:04:03.357Z,11.00
2023-10-16T19:06:30.726Z,13.25
2023-10-16T19:08:58.238Z,9.00
2023-10-16T19:11:26.940Z,12.25
2023-10-16T19:13:54.142Z,12.75
2023-10-16T19:16:21.524Z,11.00
2023-10-16T19:18:48.915Z,10.25
2023-10-16T19:21:16.048Z,10.00
2023-10-16T19:23:44.104Z,7.00
2023-10-16T19:26:14.991Z,5.00
2023-10-16T19:28:48.312Z,6.25
2023-10-16T19:31:15.318Z,8.00
2023-10-16T19:33:43.074Z,9.75
2023-10-16T19:36:15.029Z,8.00
2023-10-16T19:38:42.912Z,8.00
2023-10-16T19:41:09.617Z,8.50
2023-10-16T19:43:36.934Z,10.25
2023-10-16T19:46:05.768Z,6.00
2023-10-16T19:48:36.188Z,8.00
2023-10-16T19:51:03.859Z,8.75
2023-10-16T19:53:31.061Z,8.00
2023-10-16T19:55:58.269Z,6.50
2023-10-16T19:58:27.752Z,9.50
2023-10-16T20:00:54.994Z,9.25
2023-10-16T20:03:24.078Z,8.25
2023-10-16T20:05:53.059Z,9.75
2023-10-16T20:08:20.357Z,9.25
2023-10-16T20:10:47.878Z,9.00
2023-10-16T20:13:15.360Z,9.50
2023-10-16T20:15:42.993Z,9.75
2023-10-16T20:18:12.823Z,8.50
2023-10-16T20:23:32.701Z,10.25
2023-10-16T20:26:00.172Z,4.75
2023-10-16T20:28:27.750Z,6.75
2023-10-16T20:30:56.008Z,7.00
2023-10-16T20:33:23.528Z,3.75
2023-10-16T20:35:52.881Z,7.00
2023-10-16T20:38:20.503Z,6.75
2023-10-16T20:40:47.954Z,7.50
2023-10-16T20:43:15.169Z,7.25
2023-10-16T20:45:42.528Z,11.00
2023-10-16T20:48:09.809Z,7.25
2023-10-16T20:50:37.134Z,7.75
2023-10-16T20:53:06.001Z,4.25
2023-10-16T20:55:33.715Z,7.25
2023-10-16T20:58:01.154Z,6.50
2023-10-16T21:00:29.198Z,10.50
2023-10-16T21:02:58.240Z,10.25
2023-10-16T21:05:26.429Z,15.25
2023-10-16T21:07:55.060Z,11.75
2023-10-16T21:10:24.835Z,11.25
2023-10-16T21:12:52.605Z,12.50
2023-10-16T21:15:21.094Z,14.00
2023-10-16T21:17:50.028Z,11.00
2023-10-16T21:20:19.078Z,14.50
2023-10-16T21:22:47.745Z,20.25
2023-10-16T21:25:15.282Z,13.25
2023-10-16T21:27:46.497Z,8.75
2023-10-16T21:30:15.212Z,9.25
2023-10-16T21:32:42.561Z,6.00
2023-10-16T21:35:10.361Z,7.25
2023-10-16T21:37:37.522Z,4.25
2023-10-16T21:40:06.411Z,6.50
2023-10-16T21:42:34.132Z,3.25
2023-10-16T21:45:02.423Z,5.00
2023-10-16T21:47:29.518Z,5.50
2023-10-16T21:49:56.272Z,5.25
2023-10-16T21:52:24.245Z,4.00
2023-10-16T21:54:51.046Z,8.50
2023-10-16T21:57:17.780Z,9.25
2023-10-16T21:59:45.136Z,9.75
2023-10-16T22:02:13.178Z,8.25
2023-10-16T22:04:40.302Z,7.00
2023-10-16T22:07:08.494Z,8.25
2023-10-16T22:09:36.069Z,7.00
2023-10-16T22:12:03.527Z,5.00
2023-10-16T22:14:31.232Z,8.75
2023-10-16T22:16:58.861Z,7.50
2023-10-16T22:19:27.892Z,8.50
2023-10-16T22:21:54.984Z,4.50
2023-10-16T22:27:12.898Z,12.50
2023-10-16T22:29:39.582Z,10.00
2023-10-16T22:32:06.214Z,5.00
2023-10-16T22:34:38.814Z,6.00
2023-10-16T22:37:06.120Z,7.00
2023-10-16T22:39:33.573Z,6.00
2023-10-16T22:42:01.876Z,7.50
2023-10-16T22:44:29.804Z,4.00
2023-10-16T22:46:57.544Z,8.75
2023-10-16T22:49:25.225Z,9.75
2023-10-16T22:51:53.860Z,12.25
2023-10-16T22:54:21.064Z,15.00
2023-10-16T22:56:49.120Z,8.00
2023-10-16T22:59:16.013Z,5.00
2023-10-16T23:01:42.740Z,8.00
2023-10-16T23:04:10.133Z,9.25
2023-10-16T23:06:37.462Z,7.75
2023-10-16T23:09:06.469Z,12.50
2023-10-16T23:11:34.093Z,16.50
2023-10-16T23:14:01.361Z,12.50
2023-10-16T23:16:29.001Z,10.75
2023-10-16T23:18:58.072Z,8.50
2023-10-16T23:21:25.478Z,9.75
2023-10-16T23:23:52.857Z,10.50
2023-10-16T23:26:21.677Z,21.00
2023-10-16T23:28:49.130Z,5.50
2023-10-16T23:31:16.443Z,17.25
2023-10-16T23:33:44.491Z,9.00
2023-10-16T23:36:12.311Z,7.25
2023-10-16T23:38:40.271Z,8.25
2023-10-16T23:41:09.567Z,8.75
2023-10-16T23:43:38.296Z,5.00
2023-10-16T23:48:57.307Z,6.00
2023-10-16T23:51:24.616Z,7.50
2023-10-16T23:53:51.843Z,13.75
2023-10-16T23:59:14.035Z,10.00
